Time;durP1;ratioP1;P1;durP2;ratioP2;P2;SDS_P1;SDS_P2;PMS_P1;PMS_P2;Temp;Humidity;BMP_temperature;BMP_pressure;BME280_temperature;BME280_humidity;BME280_pressure;Samples;Min_cycle;Max_cycle;Signal;HPM_P1;HPM_P2
2023/11/02 00:01:50;;;;;;;;;;;;;;;6.86;100.00;94906.44;5087701;28;19960;-74
2023/11/02 00:04:16;;;;;;;;;;;;;;;6.83;100.00;94901.69;5087021;28;19964;-74
2023/11/02 00:06:46;;;;;;;;;;;;;;;6.81;100.00;94903.75;5088105;28;19964;-75
2023/11/02 00:09:15;;;;;;;;;;;;;;;6.78;100.00;94886.75;5086707;28;20250;-74
2023/11/02 00:11:54;;;;;;;;;;;;;;;6.77;100.00;94869.53;5087818;28;19959;-74
2023/11/02 00:14:21;;;;;;;;;;;;;;;6.78;100.00;94873.72;5087858;28;19954;-74
2023/11/02 00:16:48;;;;;;;;;;;;;;;6.76;100.00;94857.53;5087826;28;19966;-70
2023/11/02 00:19:26;;;;;;;;;;;;;;;6.75;100.00;94844.75;5087261;28;20152;-72
2023/11/02 00:21:52;;;;;;;;;;;;;;;6.73;100.00;94833.78;5087462;28;19961;-72
2023/11/02 00:24:18;;;;;;;;;;;;;;;6.71;100.00;94834.00;5088062;28;19958;-72
2023/11/02 00:26:44;;;;;;;;;;;;;;;6.69;100.00;94833.44;5087229;28;20048;-72
2023/11/02 00:29:10;;;;;;;;;;;;;;;6.68;100.00;94831.88;5087166;28;19959;-72
2023/11/02 00:31:36;;;;;;;;;;;;;;;6.69;100.00;94823.81;5087231;28;19959;-72
2023/11/02 00:34:02;;;;;;;;;;;;;;;6.69;100.00;94829.00;5087224;28;19964;-72
2023/11/02 00:36:31;;;;;;;;;;;;;;;6.73;100.00;94831.16;5087300;28;20044;-70
2023/11/02 00:38:57;;;;;;;;;;;;;;;6.74;100.00;94825.72;5087202;28;20221;-69
2023/11/02 00:41:23;;;;;;;;;;;;;;;6.73;100.00;94808.50;5087373;28;20232;-71
2023/11/02 00:43:49;;;;;;;;;;;;;;;6.73;100.00;94805.91;5085935;28;19952;-70
2023/11/02 00:46:14;;;;;;;;;;;;;;;6.74;100.00;94802.28;5087298;28;19957;-70
2023/11/02 00:48:40;;;;;;;;;;;;;;;6.75;100.00;94808.28;5087192;28;19953;-70
2023/11/02 00:51:08;;;;;;;;;;;;;;;6.76;100.00;94807.25;5087187;28;20177;-70
2023/11/02 00:53:36;;;;;;;;;;;;;;;6.75;100.00;94806.47;5086802;28;19961;-74
2023/11/02 00:56:05;;;;;;;;;;;;;;;6.74;100.00;94802.28;5086733;28;19963;-80
2023/11/02 00:58:31;;;;;;;;;;;;;;;6.75;100.00;94800.47;5086073;28;19963;-80
2023/11/02 01:01:07;;;;;;;;;;;;;;;6.71;100.00;94787.88;5086678;28;19957;-79
2023/11/02 01:03:34;;;;;;;;;;;;;;;6.71;100.00;94777.47;5086822;28;20129;-79
2023/11/02 01:06:00;;;;;;;;;;;;;;;6.71;100.00;94771.47;5086749;28;19961;-79
2023/11/02 01:08:30;;;;;;;;;;;;;;;6.70;100.00;94762.88;5084841;28;20150;-80
2023/11/02 01:10:56;;;;;;;;;;;;;;;6.71;100.00;94754.03;5086818;28;19955;-79
2023/11/02 01:13:22;;;;;;;;;;;;;;;6.71;100.00;94738.41;5086787;28;19990;-78
2023/11/02 01:16:03;;;;;;;;;;;;;;;6.71;100.00;94730.59;5086613;28;19958;-70
2023/11/02 01:18:29;;;;;;;;;;;;;;;6.71;100.00;94725.38;5085336;28;19954;-70
2023/11/02 01:21:05;;;;;;;;;;;;;;;6.71;100.00;94725.38;5086319;28;19997;-69
2023/11/02 01:23:32;;;;;;;;;;;;;;;6.72;100.00;94710.56;5086730;28;20000;-70
2023/11/02 01:25:59;;;;;;;;;;;;;;;6.71;100.00;94714.97;5086378;28;19949;-69
2023/11/02 01:28:45;;;;;;;;;;;;;;;6.71;100.00;94703.75;5085925;28;19976;-70
2023/11/02 01:31:15;;;;;;;;;;;;;;;6.71;100.00;94694.13;5086457;28;19952;-80
2023/11/02 01:33:40;;;;;;;;;;;;;;;6.72;100.00;94679.31;5086363;28;19963;-72
2023/11/02 01:36:06;;;;;;;;;;;;;;;6.71;100.00;94682.91;5084737;28;20042;-72
2023/11/02 01:38:33;;;;;;;;;;;;;;;6.73;100.00;94673.06;5085248;28;20017;-72
2023/11/02 01:41:20;;;;;;;;;;;;;;;6.74;100.00;94672.03;5086182;28;19953;-72
2023/11/02 01:43:57;;;;;;;;;;;;;;;6.74;100.00;94653.81;5085954;28;19961;-72
2023/11/02 01:46:42;;;;;;;;;;;;;;;6.74;100.00;94648.59;5086209;28;19958;-73
2023/11/02 01:49:21;;;;;;;;;;;;;;;6.72;100.00;94655.84;5086092;28;19963;-78
2023/11/02 01:51:55;;;;;;;;;;;;;;;6.71;100.00;94644.63;5085558;28;19953;-74
2023/11/02 01:54:37;;;;;;;;;;;;;;;6.69;100.00;94638.09;5085566;28;20241;-74
2023/11/02 01:57:07;;;;;;;;;;;;;;;6.66;100.00;94630.75;5084239;28;19963;-73
2023/11/02 01:59:36;;;;;;;;;;;;;;;6.67;100.00;94624.50;5085560;28;19957;-74
2023/11/02 02:02:12;;;;;;;;;;;;;;;6.66;100.00;94623.72;5085594;28;20131;-74
2023/11/02 02:04:57;;;;;;;;;;;;;;;6.66;100.00;94617.72;5085677;28;19951;-74
2023/11/02 02:07:48;;;;;;;;;;;;;;;6.66;100.00;94623.72;5084663;28;19957;-74
2023/11/02 02:10:22;;;;;;;;;;;;;;;6.68;100.00;94626.88;5085693;28;20002;-80
2023/11/02 02:12:59;;;;;;;;;;;;;;;6.69;100.00;94622.47;5085587;28;19953;-80
2023/11/02 02:15:28;;;;;;;;;;;;;;;6.68;100.00;94610.47;5085427;28;19959;-80
2023/11/02 02:17:59;;;;;;;;;;;;;;;6.69;100.00;94606.81;5085243;28;19965;-80
2023/11/02 02:20:31;;;;;;;;;;;;;;;6.69;100.00;94605.00;5083239;28;19963;-80
2023/11/02 02:22:59;;;;;;;;;;;;;;;6.71;100.00;94597.75;5085457;28;19977;-79
2023/11/02 02:25:46;;;;;;;;;;;;;;;6.70;100.00;94588.38;5085303;28;19965;-79
2023/11/02 02:28:12;;;;;;;;;;;;;;;6.69;100.00;94578.19;5085344;28;19967;-80
2023/11/02 02:30:41;;;;;;;;;;;;;;;6.68;100.00;94566.19;5085106;28;20125;-80
2023/11/02 02:33:17;;;;;;;;;;;;;;;6.68;100.00;94566.97;5084909;28;19958;-80
2023/11/02 02:35:54;;;;;;;;;;;;;;;6.67;100.00;94562.00;5084770;28;19960;-81
2023/11/02 02:38:28;;;;;;;;;;;;;;;6.68;100.00;94568.81;5085241;28;19965;-80
2023/11/02 02:40:59;;;;;;;;;;;;;;;6.68;100.00;94574.00;5085117;28;19979;-79
2023/11/02 02:43:27;;;;;;;;;;;;;;;6.67;100.00;94548.97;5085071;28;19958;-79
2023/11/02 02:45:53;;;;;;;;;;;;;;;6.65;100.00;94543.22;5083411;28;19971;-71
2023/11/02 02:48:21;;;;;;;;;;;;;;;6.64;100.00;94558.06;5084994;28;20139;-74
2023/11/02 02:50:55;;;;;;;;;;;;;;;6.61;100.00;94536.91;5084539;28;19956;-74
2023/11/02 02:53:22;;;;;;;;;;;;;;;6.55;100.00;94530.88;5084544;28;19958;-74
2023/11/02 02:55:48;;;;;;;;;;;;;;;6.51;100.00;94537.56;5084497;28;19968;-74
2023/11/02 02:58:15;;;;;;;;;;;;;;;6.51;100.00;94537.56;5084811;28;19951;-74
2023/11/02 03:00:42;;;;;;;;;;;;;;;6.47;100.00;94552.88;5084801;28;19973;-74
2023/11/02 03:03:08;;;;;;;;;;;;;;;6.45;100.00;94547.13;5084770;28;19959;-70
2023/11/02 03:05:35;;;;;;;;;;;;;;;6.44;100.00;94555.94;5084226;28;19955;-74
2023/11/02 03:08:03;;;;;;;;;;;;;;;6.39;100.00;94542.88;5084679;28;20125;-74
2023/11/02 03:10:30;;;;;;;;;;;;;;;6.35;100.00;94517.56;5084109;28;20205;-73
2023/11/02 03:12:59;;;;;;;;;;;;;;;6.32;100.00;94515.41;5084789;28;19961;-73
2023/11/02 03:15:28;;;;;;;;;;;;;;;6.29;100.00;94532.28;5084451;28;19960;-74
2023/11/02 03:18:02;;;;;;;;;;;;;;;6.27;100.00;94523.94;5082829;28;19969;-73
2023/11/02 03:20:28;;;;;;;;;;;;;;;6.23;100.00;94533.25;5084521;28;19954;-70
2023/11/02 03:22:58;;;;;;;;;;;;;;;6.23;100.00;94534.03;5084305;28;19966;-69
2023/11/02 03:25:34;;;;;;;;;;;;;;;6.26;100.00;94517.94;5084399;28;20266;-79
2023/11/02 03:27:59;;;;;;;;;;;;;;;6.29;100.00;94507.06;5084619;28;19954;-79
2023/11/02 03:30:30;;;;;;;;;;;;;;;6.29;100.00;94506.25;5084696;28;19969;-79
2023/11/02 03:33:15;;;;;;;;;;;;;;;6.34;100.00;94498.56;5089988;28;19967;-78
2023/11/02 03:35:43;;;;;;;;;;;;;;;6.32;100.00;94494.59;5090633;28;19970;-79
2023/11/02 03:38:19;;;;;;;;;;;;;;;6.33;100.00;94485.75;5091211;28;20239;-79
2023/11/02 03:40:51;;;;;;;;;;;;;;;6.37;100.00;94477.22;5091295;28;19961;-67
2023/11/02 03:43:23;;;;;;;;;;;;;;;6.40;100.00;94466.31;5090701;28;19982;-74
2023/11/02 03:46:04;;;;;;;;;;;;;;;6.45;100.00;94450.00;5091124;28;19956;-75
2023/11/02 03:48:37;;;;;;;;;;;;;;;6.49;100.00;94431.06;5091002;28;20338;-75
2023/11/02 03:51:05;;;;;;;;;;;;;;;6.52;100.00;94408.94;5090420;28;19942;-75
2023/11/02 03:53:45;;;;;;;;;;;;;;;6.55;100.00;94379.84;5090967;28;20167;-75
2023/11/02 03:56:17;;;;;;;;;;;;;;;6.58;100.00;94363.72;5091027;28;19963;-75
2023/11/02 03:59:21;;;;;;;;;;;;;;;6.60;100.00;94340.81;5090663;28;19963;-70
2023/11/02 04:01:50;;;;;;;;;;;;;;;6.61;100.00;94316.34;5009072;28;20152;-71
2023/11/02 04:04:25;;;;;;;;;;;;;;;6.63;100.00;94290.06;5009041;28;19959;-71
2023/11/02 04:06:53;;;;;;;;;;;;;;;6.63;100.00;94270.00;5053919;28;19950;-70
2023/11/02 04:09:21;;;;;;;;;;;;;;;6.66;100.00;94287.75;5090548;28;19955;-71
2023/11/02 04:11:58;;;;;;;;;;;;;;;6.69;100.00;94284.66;5090210;28;20137;-71
2023/11/02 04:14:24;;;;;;;;;;;;;;;6.73;100.00;94271.16;5090492;28;19956;-71
2023/11/02 04:16:50;;;;;;;;;;;;;;;6.77;100.00;94267.03;5090398;28;20024;-73
2023/11/02 04:19:16;;;;;;;;;;;;;;;6.81;100.00;94284.50;5090501;28;19960;-79
2023/11/02 04:21:42;;;;;;;;;;;;;;;6.84;100.00;94294.41;5090412;28;19955;-79
2023/11/02 04:24:08;;;;;;;;;;;;;;;6.87;100.00;94280.91;5090484;28;19957;-79
2023/11/02 04:26:34;;;;;;;;;;;;;;;6.89;100.00;94262.44;5090834;28;20236;-79
2023/11/02 04:29:00;;;;;;;;;;;;;;;6.90;100.00;94243.94;5090588;28;19960;-79
2023/11/02 04:31:26;;;;;;;;;;;;;;;6.89;100.00;94267.66;5090556;28;19961;-78
2023/11/02 04:33:52;;;;;;;;;;;;;;;6.88;100.00;94258.25;5090099;28;19944;-73
2023/11/02 04:36:17;;;;;;;;;;;;;;;6.81;100.00;94248.03;5090783;28;19958;-73
2023/11/02 04:38:44;;;;;;;;;;;;;;;6.76;100.00;94244.59;5090139;28;19954;-73
2023/11/02 04:41:10;;;;;;;;;;;;;;;6.76;100.00;94245.41;5090478;28;19958;-73
2023/11/02 04:43:36;;;;;;;;;;;;;;;6.75;100.00;94217.78;5087518;28;19952;-72
2023/11/02 04:46:02;;;;;;;;;;;;;;;6.77;100.00;94212.31;5086563;28;19958;-73
2023/11/02 04:48:28;;;;;;;;;;;;;;;6.77;100.00;94217.53;5087138;28;19955;-73
2023/11/02 04:50:55;;;;;;;;;;;;;;;6.78;100.00;94217.25;5087075;28;19977;-73
2023/11/02 04:53:22;;;;;;;;;;;;;;;6.78;100.00;94206.06;5087213;28;19967;-69
2023/11/02 04:55:50;;;;;;;;;;;;;;;6.76;100.00;94206.34;5086362;28;19965;-73
2023/11/02 04:58:16;;;;;;;;;;;;;;;6.73;100.00;94206.03;5086954;28;19964;-73
2023/11/02 05:00:42;;;;;;;;;;;;;;;6.72;100.00;94202.66;5086969;28;20029;-73
2023/11/02 05:03:08;;;;;;;;;;;;;;;6.74;100.00;94184.16;5087161;28;19947;-73
2023/11/02 05:05:34;;;;;;;;;;;;;;;6.75;100.00;94172.72;5085347;28;19956;-73
2023/11/02 05:08:00;;;;;;;;;;;;;;;6.81;100.00;94154.25;5086224;28;19952;-72
2023/11/02 05:10:26;;;;;;;;;;;;;;;6.85;100.00;94129.28;5086527;28;19993;-75
2023/11/02 05:12:51;;;;;;;;;;;;;;;6.90;100.00;94125.91;5086482;28;19992;-72
2023/11/02 05:15:17;;;;;;;;;;;;;;;6.95;100.00;94114.75;5086534;28;20127;-72
2023/11/02 05:17:43;;;;;;;;;;;;;;;6.97;100.00;94108.25;5086356;28;19984;-72
2023/11/02 05:20:09;;;;;;;;;;;;;;;6.98;100.00;94091.59;5086342;28;19994;-72
2023/11/02 05:22:35;;;;;;;;;;;;;;;7.00;100.00;94086.91;5086753;28;19959;-72
2023/11/02 05:25:01;;;;;;;;;;;;;;;7.05;100.00;94071.28;5086437;28;20268;-72
2023/11/02 05:27:29;;;;;;;;;;;;;;;7.13;100.00;94072.63;5086485;28;19994;-73
2023/11/02 05:29:55;;;;;;;;;;;;;;;7.18;100.00;94071.84;5085869;28;19962;-72
2023/11/02 05:32:21;;;;;;;;;;;;;;;7.23;100.00;94062.25;5085987;28;19978;-79
2023/11/02 05:34:46;;;;;;;;;;;;;;;7.26;100.00;94079.97;5085834;28;19965;-81
2023/11/02 05:37:12;;;;;;;;;;;;;;;7.29;100.00;94081.31;5085869;28;19961;-79
2023/11/02 05:39:38;;;;;;;;;;;;;;;7.32;100.00;94081.56;5085881;28;20283;-79
2023/11/02 05:42:04;;;;;;;;;;;;;;;7.34;100.00;94110.00;5085871;28;19958;-79
2023/11/02 05:44:30;;;;;;;;;;;;;;;7.35;100.00;94123.81;5085895;28;19963;-79
2023/11/02 05:46:56;;;;;;;;;;;;;;;7.35;100.00;94136.84;5084853;28;20149;-79
2023/11/02 05:49:22;;;;;;;;;;;;;;;7.35;100.00;94150.69;5086183;28;19957;-71
2023/11/02 05:51:47;;;;;;;;;;;;;;;7.37;100.00;94177.28;5085897;28;20016;-68
2023/11/02 05:54:13;;;;;;;;;;;;;;;7.38;100.00;94175.44;5085693;28;20018;-67
2023/11/02 05:56:39;;;;;;;;;;;;;;;7.39;100.00;94166.56;5085843;28;20041;-68
2023/11/02 05:59:05;;;;;;;;;;;;;;;7.40;100.00;94184.59;5085308;28;20013;-67
2023/11/02 06:01:31;;;;;;;;;;;;;;;7.41;100.00;94186.16;5085760;28;19961;-67
2023/11/02 06:03:58;;;;;;;;;;;;;;;7.43;100.00;94210.16;5085980;28;19972;-67
2023/11/02 06:06:24;;;;;;;;;;;;;;;7.45;100.00;94207.28;5085322;28;19963;-71
2023/11/02 06:08:50;;;;;;;;;;;;;;;7.45;100.00;94210.66;5085337;28;19961;-73
2023/11/02 06:11:16;;;;;;;;;;;;;;;7.47;100.00;94229.44;5085275;28;19959;-73
2023/11/02 06:13:43;;;;;;;;;;;;;;;7.46;100.00;94203.66;5085271;28;20115;-73
2023/11/02 06:16:09;;;;;;;;;;;;;;;7.42;100.00;94181.72;5085241;28;20238;-73
2023/11/02 06:18:35;;;;;;;;;;;;;;;7.39;100.00;94235.16;5085386;28;20274;-73
2023/11/02 06:21:01;;;;;;;;;;;;;;;7.39;100.00;94219.53;5085317;28;20021;-73
2023/11/02 06:23:27;;;;;;;;;;;;;;;7.34;100.00;94232.50;5085257;28;19959;-73
2023/11/02 06:25:52;;;;;;;;;;;;;;;7.32;100.00;94217.13;5085285;28;19951;-73
2023/11/02 06:28:19;;;;;;;;;;;;;;;7.35;100.00;94195.00;5084706;28;20003;-70
2023/11/02 06:30:45;;;;;;;;;;;;;;;7.30;100.00;94174.88;5085199;28;19957;-70
2023/11/02 06:33:16;;;;;;;;;;;;;;;7.25;100.00;94197.53;5085094;28;19948;-70
2023/11/02 06:35:42;;;;;;;;;;;;;;;7.27;100.00;94185.03;5084593;28;19959;-70
2023/11/02 06:38:08;;;;;;;;;;;;;;;7.28;100.00;94157.91;5084618;28;19966;-70
2023/11/02 06:40:34;;;;;;;;;;;;;;;7.31;100.00;94162.66;5084690;28;19958;-70
2023/11/02 06:43:00;;;;;;;;;;;;;;;7.36;100.00;94169.69;5085430;28;20259;-70
2023/11/02 06:45:26;;;;;;;;;;;;;;;7.41;100.00;94175.72;5084740;28;19966;-73
2023/11/02 06:47:51;;;;;;;;;;;;;;;7.48;100.00;94183.31;5084661;28;19963;-74
2023/11/02 06:50:17;;;;;;;;;;;;;;;7.52;100.00;94182.56;5084857;28;20127;-74
2023/11/02 06:52:43;;;;;;;;;;;;;;;7.57;100.00;94188.84;5084762;28;19987;-74
2023/11/02 06:55:10;;;;;;;;;;;;;;;7.60;100.00;94176.09;5084783;28;19955;-74
2023/11/02 06:57:36;;;;;;;;;;;;;;;7.63;100.00;94167.72;5084824;28;19965;-74
2023/11/02 07:00:05;;;;;;;;;;;;;;;7.68;100.00;94174.78;5084711;28;20259;-74
2023/11/02 07:02:32;;;;;;;;;;;;;;;7.69;100.00;94182.38;5084980;28;19954;-73
2023/11/02 07:04:58;;;;;;;;;;;;;;;7.73;100.00;94178.22;5084124;28;19951;-71
2023/11/02 07:07:24;;;;;;;;;;;;;;;7.76;100.00;94183.97;5084122;28;19981;-71
2023/11/02 07:09:51;;;;;;;;;;;;;;;7.77;100.00;94175.06;5084589;28;19955;-71
2023/11/02 07:12:17;;;;;;;;;;;;;;;7.75;100.00;94164.91;5084320;28;19966;-70
2023/11/02 07:14:44;;;;;;;;;;;;;;;7.73;100.00;94167.00;5084390;28;20265;-70
2023/11/02 07:17:10;;;;;;;;;;;;;;;7.72;100.00;94154.97;5084439;28;19967;-71
2023/11/02 07:19:35;;;;;;;;;;;;;;;7.72;100.00;94144.53;5084435;28;19963;-68
2023/11/02 07:22:01;;;;;;;;;;;;;;;7.70;100.00;94131.75;5084307;28;19962;-70
2023/11/02 07:24:27;;;;;;;;;;;;;;;7.71;100.00;94128.13;5084406;28;19958;-73
2023/11/02 07:26:53;;;;;;;;;;;;;;;7.70;100.00;94134.34;5084390;28;19969;-73
2023/11/02 07:29:19;;;;;;;;;;;;;;;7.70;100.00;94123.94;5083911;28;19948;-73
2023/11/02 07:31:45;;;;;;;;;;;;;;;7.71;100.00;94109.06;5084617;28;19955;-73
2023/11/02 07:34:11;;;;;;;;;;;;;;;7.74;100.00;94105.94;5083820;28;19993;-73
2023/11/02 07:36:37;;;;;;;;;;;;;;;7.74;100.00;94118.97;5084224;28;20262;-73
2023/11/02 07:39:04;;;;;;;;;;;;;;;7.75;100.00;94102.31;5082519;28;19974;-74
2023/11/02 07:41:30;;;;;;;;;;;;;;;7.78;100.00;94101.00;5084074;28;19954;-67
2023/11/02 07:43:56;;;;;;;;;;;;;;;7.78;100.00;94112.22;5084034;28;19961;-68
2023/11/02 07:46:21;;;;;;;;;;;;;;;7.77;100.00;94112.47;5084350;28;19954;-68
2023/11/02 07:48:47;;;;;;;;;;;;;;;7.77;100.00;94102.03;5084041;28;19962;-68
2023/11/02 07:51:14;;;;;;;;;;;;;;;7.77;100.00;94104.63;5084151;28;19953;-68
2023/11/02 07:53:40;;;;;;;;;;;;;;;7.76;100.00;94103.88;5084174;28;19959;-68
2023/11/02 07:56:08;;;;;;;;;;;;;;;7.77;100.00;94100.22;5084096;28;19991;-68
2023/11/02 07:58:42;;;;;;;;;;;;;;;7.77;100.00;94109.84;5084107;28;19979;-79
2023/11/02 08:01:11;;;;;;;;;;;;;;;7.75;100.00;94102.31;5083899;28;19954;-73
2023/11/02 08:03:37;;;;;;;;;;;;;;;7.73;100.00;94099.16;5083589;28;19956;-73
2023/11/02 08:06:03;;;;;;;;;;;;;;;7.71;100.00;94096.03;5084049;28;19966;-73
2023/11/02 08:08:29;;;;;;;;;;;;;;;7.75;100.00;94091.06;5083818;28;20149;-72
2023/11/02 08:10:56;;;;;;;;;;;;;;;7.72;100.00;94105.41;5084091;28;19970;-73
2023/11/02 08:13:21;;;;;;;;;;;;;;;7.70;100.00;94102.28;5083671;28;19954;-73
2023/11/02 08:15:47;;;;;;;;;;;;;;;7.68;100.00;94099.16;5083825;28;19954;-70
2023/11/02 08:18:13;;;;;;;;;;;;;;;7.66;100.00;94104.59;5083950;28;20306;-73
2023/11/02 08:20:39;;;;;;;;;;;;;;;7.65;100.00;94089.25;5087632;28;19984;-73
2023/11/02 08:23:05;;;;;;;;;;;;;;;7.65;100.00;94099.66;5087655;28;19954;-73
2023/11/02 08:25:31;;;;;;;;;;;;;;;7.65;100.00;94087.41;5087545;28;19957;-73
2023/11/02 08:27:57;;;;;;;;;;;;;;;7.67;100.00;94077.50;5087716;28;20003;-73
2023/11/02 08:30:26;;;;;;;;;;;;;;;7.70;100.00;94069.16;5087633;28;19994;-72
2023/11/02 08:32:53;;;;;;;;;;;;;;;7.75;100.00;94070.19;5087071;28;19957;-73
2023/11/02 08:35:21;;;;;;;;;;;;;;;7.80;100.00;94052.75;5087437;28;19967;-73
2023/11/02 08:37:50;;;;;;;;;;;;;;;7.84;100.00;94058.22;5085781;28;19968;-76
2023/11/02 08:40:20;;;;;;;;;;;;;;;7.88;100.00;94049.63;5087107;28;19959;-76
2023/11/02 08:42:47;;;;;;;;;;;;;;;7.92;100.00;94055.88;5087017;28;19950;-76
2023/11/02 08:45:13;;;;;;;;;;;;;;;7.97;100.00;94051.72;5087096;28;19955;-76
2023/11/02 08:47:40;;;;;;;;;;;;;;;7.98;100.00;94051.47;5087200;28;19956;-76
2023/11/02 08:50:06;;;;;;;;;;;;;;;7.95;100.00;94048.59;5086775;28;20163;-76
2023/11/02 08:52:32;;;;;;;;;;;;;;;7.95;100.00;94044.13;5087093;28;19975;-70
2023/11/02 08:55:00;;;;;;;;;;;;;;;7.95;100.00;94044.13;5086105;28;20213;-74
2023/11/02 08:57:26;;;;;;;;;;;;;;;7.99;100.00;94031.38;5087201;28;19972;-74
2023/11/02 08:59:52;;;;;;;;;;;;;;;7.99;100.00;94039.19;5085787;28;20155;-75
2023/11/02 09:02:18;;;;;;;;;;;;;;;8.02;100.00;94026.41;5086633;28;19989;-74
2023/11/02 09:04:44;;;;;;;;;;;;;;;8.04;100.00;94026.13;5087031;28;19968;-74
2023/11/02 09:07:10;;;;;;;;;;;;;;;8.06;100.00;94034.50;5086844;28;19958;-73
2023/11/02 09:09:36;;;;;;;;;;;;;;;8.07;100.00;94041.28;5086655;28;19972;-72
2023/11/02 09:12:02;;;;;;;;;;;;;;;8.31;100.00;94060.59;5086392;28;20247;-73
2023/11/02 09:14:27;;;;;;;;;;;;;;;8.62;100.00;94057.19;5086626;28;19957;-70
2023/11/02 09:16:53;;;;;;;;;;;;;;;8.60;100.00;94067.91;5086769;28;19956;-70
2023/11/02 09:19:19;;;;;;;;;;;;;;;8.52;100.00;94073.66;5086082;28;20165;-70
2023/11/02 09:21:47;;;;;;;;;;;;;;;8.39;100.00;94085.41;5086613;28;19958;-70
2023/11/02 09:24:14;;;;;;;;;;;;;;;8.30;100.00;94094.81;5086321;28;19956;-71
2023/11/02 09:26:41;;;;;;;;;;;;;;;8.25;100.00;94102.63;5086253;28;20166;-70
2023/11/02 09:29:07;;;;;;;;;;;;;;;8.15;100.00;94100.81;5086208;28;20116;-76
2023/11/02 09:31:33;;;;;;;;;;;;;;;8.10;100.00;94106.78;5086003;28;19954;-76
2023/11/02 09:34:01;;;;;;;;;;;;;;;8.09;100.00;94107.06;5085939;28;19958;-77
2023/11/02 09:36:27;;;;;;;;;;;;;;;8.09;100.00;94102.63;5085974;28;19966;-77
2023/11/02 09:38:53;;;;;;;;;;;;;;;8.12;100.00;94106.53;5085916;28;19965;-78
2023/11/02 09:41:19;;;;;;;;;;;;;;;8.13;100.00;94113.34;5085661;28;19963;-77
2023/11/02 09:43:45;;;;;;;;;;;;;;;8.13;100.00;94113.34;5084677;28;19964;-77
2023/11/02 09:46:12;;;;;;;;;;;;;;;8.12;100.00;94101.31;5086045;28;19965;-77
2023/11/02 09:48:38;;;;;;;;;;;;;;;8.11;100.00;94104.97;5086036;28;19956;-79
2023/11/02 09:51:06;;;;;;;;;;;;;;;8.12;100.00;94111.75;5085379;28;19959;-72
2023/11/02 09:53:31;;;;;;;;;;;;;;;8.14;100.00;94120.09;5085508;28;19971;-72
2023/11/02 09:55:58;;;;;;;;;;;;;;;8.14;100.00;94115.66;5085417;28;20228;-72
2023/11/02 09:58:24;;;;;;;;;;;;;;;8.17;100.00;94118.81;5085403;28;19984;-71
2023/11/02 10:00:50;;;;;;;;;;;;;;;8.20;100.00;94118.28;5085446;28;20016;-71
2023/11/02 10:03:16;;;;;;;;;;;;;;;8.22;100.00;94114.38;5085553;28;19957;-71
2023/11/02 10:05:44;;;;;;;;;;;;;;;8.25;100.00;94108.66;5085430;28;19950;-71
2023/11/02 10:08:10;;;;;;;;;;;;;;;8.32;100.00;94097.94;5085414;28;19960;-70
2023/11/02 10:10:36;;;;;;;;;;;;;;;8.37;100.00;94090.09;5085472;28;19954;-69
2023/11/02 10:13:02;;;;;;;;;;;;;;;8.44;100.00;94087.25;5085466;28;19997;-70
2023/11/02 10:15:29;;;;;;;;;;;;;;;8.50;100.00;94088.81;5085494;28;19957;-70
2023/11/02 10:17:55;;;;;;;;;;;;;;;8.58;100.00;94084.91;5085372;28;19969;-70
2023/11/02 10:20:21;;;;;;;;;;;;;;;8.64;100.00;94084.63;5084800;28;19992;-70
2023/11/02 10:23:01;;;;;;;;;;;;;;;8.72;100.00;94078.09;5084806;28;20062;-70
2023/11/02 10:25:28;;;;;;;;;;;;;;;8.80;100.00;94074.94;5085498;28;19957;-76
2023/11/02 10:27:56;;;;;;;;;;;;;;;8.86;100.00;94067.84;5084857;28;19960;-78
2023/11/02 10:30:22;;;;;;;;;;;;;;;8.92;100.00;94062.38;5084909;28;19957;-77
2023/11/02 10:32:48;;;;;;;;;;;;;;;9.00;100.00;94060.25;5085002;28;19963;-76
2023/11/02 10:35:15;;;;;;;;;;;;;;;9.05;100.00;94052.38;5083603;28;19970;-76
2023/11/02 10:37:41;;;;;;;;;;;;;;;9.08;100.00;94036.94;5085014;28;20163;-77
2023/11/02 10:40:07;;;;;;;;;;;;;;;9.11;100.00;94031.22;5084928;28;19956;-77
2023/11/02 10:42:33;;;;;;;;;;;;;;;9.11;100.00;94023.38;5084214;28;19959;-73
2023/11/02 10:44:59;;;;;;;;;;;;;;;9.10;100.00;94024.41;5084947;28;19950;-73
2023/11/02 10:47:27;;;;;;;;;;;;;;;9.09;100.00;94029.88;5084347;28;19947;-73
2023/11/02 10:49:54;;;;;;;;;;;;;;;9.09;100.00;94030.69;5085078;28;20237;-74
2023/11/02 10:52:33;;;;;;;;;;;;;;;9.08;100.00;94039.56;5084876;28;19960;-73
2023/11/02 10:55:01;;;;;;;;;;;;;;;9.07;100.00;94026.75;5084777;28;19953;-73
2023/11/02 10:57:29;;;;;;;;;;;;;;;9.07;100.00;94024.94;5084436;28;20118;-73
2023/11/02 10:59:57;;;;;;;;;;;;;;;9.07;100.00;94029.38;5084666;28;19966;-78
2023/11/02 11:02:23;;;;;;;;;;;;;;;9.05;100.00;94031.47;5084539;28;20130;-68
2023/11/02 11:04:49;;;;;;;;;;;;;;;9.05;100.00;94034.88;5084714;28;19972;-72
2023/11/02 11:07:15;;;;;;;;;;;;;;;9.05;100.00;94034.09;5083300;28;19966;-73
2023/11/02 11:09:41;;;;;;;;;;;;;;;9.06;100.00;94030.44;5084583;28;19954;-72
2023/11/02 11:12:07;;;;;;;;;;;;;;;9.06;100.00;94035.66;5084498;28;19967;-73
2023/11/02 11:14:37;;;;;;;;;;;;;;;9.04;100.00;94043.75;5084523;28;19962;-73
2023/11/02 11:17:04;;;;;;;;;;;;;;;9.03;100.00;94036.19;5083938;28;19952;-72
2023/11/02 11:19:31;;;;;;;;;;;;;;;9.02;100.00;94021.56;5084051;28;19975;-77
2023/11/02 11:22:09;;;;;;;;;;;;;;;8.99;100.00;94025.50;5082964;28;19969;-73
2023/11/02 11:24:35;;;;;;;;;;;;;;;8.98;100.00;94021.31;5084260;28;19953;-73
2023/11/02 11:27:04;;;;;;;;;;;;;;;8.99;100.00;94009.00;5082977;28;20308;-73
2023/11/02 11:29:40;;;;;;;;;;;;;;;8.99;100.00;94020.28;5084252;28;19966;-73
2023/11/02 11:32:29;;;;;;;;;;;;;;;8.99;100.00;94012.44;5084332;28;20201;-73
2023/11/02 11:34:55;;;;;;;;;;;;;;;9.00;100.00;94005.34;5083639;28;20256;-74
2023/11/02 11:37:57;;;;;;;;;;;;;;;8.99;100.00;93993.31;5083858;28;19965;-73
2023/11/02 11:40:24;;;;;;;;;;;;;;;8.99;100.00;93996.75;5084057;28;19960;-74
2023/11/02 11:42:54;;;;;;;;;;;;;;;8.98;100.00;93997.00;5084333;28;20147;-73
2023/11/02 11:45:30;;;;;;;;;;;;;;;8.99;100.00;93983.69;5084152;28;19976;-73
2023/11/02 11:48:00;;;;;;;;;;;;;;;8.98;100.00;93978.72;5084292;28;19962;-74
2023/11/02 11:50:30;;;;;;;;;;;;;;;8.97;100.00;93971.94;5083668;28;20131;-73
2023/11/02 11:53:12;;;;;;;;;;;;;;;8.95;100.00;93956.50;5084522;28;19971;-74
2023/11/02 11:55:39;;;;;;;;;;;;;;;8.94;100.00;93953.13;5087810;28;20131;-68
2023/11/02 11:58:08;;;;;;;;;;;;;;;8.95;100.00;93940.81;5087817;28;19967;-72
2023/11/02 12:00:57;;;;;;;;;;;;;;;8.94;100.00;93940.06;5087987;28;19956;-73
2023/11/02 12:03:35;;;;;;;;;;;;;;;8.94;100.00;93924.38;5077481;28;20141;-73
2023/11/02 12:06:02;;;;;;;;;;;;;;;9.01;100.00;93926.69;5087946;28;19966;-73
2023/11/02 12:08:28;;;;;;;;;;;;;;;9.27;100.00;93908.22;5087366;28;19948;-73
2023/11/02 12:10:57;;;;;;;;;;;;;;;9.46;100.00;93893.44;5086898;28;19960;-73
2023/11/02 12:13:24;;;;;;;;;;;;;;;9.41;100.00;93896.09;5087458;28;19968;-73
2023/11/02 12:15:51;;;;;;;;;;;;;;;9.33;100.00;93883.63;5087874;28;19981;-72
2023/11/02 12:18:18;;;;;;;;;;;;;;;9.39;100.00;93882.53;5087764;28;19971;-67
2023/11/02 12:20:44;;;;;;;;;;;;;;;9.55;100.00;93872.72;5087406;28;19963;-70
2023/11/02 12:23:12;;;;;;;;;;;;;;;9.49;100.00;93860.72;5087636;28;19977;-70
2023/11/02 12:25:40;;;;;;;;;;;;;;;9.41;100.00;93849.03;5087007;28;20249;-70
2023/11/02 12:28:11;;;;;;;;;;;;;;;9.41;100.00;93833.34;5087510;28;19957;-70
2023/11/02 12:30:41;;;;;;;;;;;;;;;9.34;100.00;93822.41;5087391;28;19960;-71
2023/11/02 12:33:07;;;;;;;;;;;;;;;9.26;100.00;93833.44;5087466;28;20001;-74
2023/11/02 12:35:33;;;;;;;;;;;;;;;9.19;100.00;93835.59;5086089;28;20291;-73
2023/11/02 12:38:02;;;;;;;;;;;;;;;9.12;100.00;93841.91;5086011;28;19965;-73
2023/11/02 12:40:49;;;;;;;;;;;;;;;9.06;100.00;93848.22;5087314;28;19957;-73
2023/11/02 12:43:19;;;;;;;;;;;;;;;9.05;100.00;93853.72;5086978;28;19958;-72
2023/11/02 12:45:44;;;;;;;;;;;;;;;9.01;100.00;93837.81;5086892;28;19964;-73
2023/11/02 12:48:25;;;;;;;;;;;;;;;9.00;100.00;93823.16;5086982;28;19982;-73
2023/11/02 12:50:51;;;;;;;;;;;;;;;8.98;100.00;93803.59;5087085;28;19962;-72
2023/11/02 12:53:30;;;;;;;;;;;;;;;8.96;100.00;93785.56;5085693;28;19956;-73
2023/11/02 12:55:58;;;;;;;;;;;;;;;8.94;100.00;93782.44;5086768;28;19964;-73